Terminal Aerodrome Forecast
Issued by NWS Knoxville/Tri Cities, TN

Home | Current Version | Previous Version | Text Only | Print | Product List | Glossary On
Versions: 1 2 3 4 5 6 7 8 9 10 11 12 13 14 15 16
000
FTUS44 KMRX 050520
TAFTYS
TAF
KTYS 050520Z 0506/0606 26007KT P6SM SCT040 BKN070
     FM051400 28010G17KT P6SM VCSH BKN040
     FM060100 30008KT P6SM BKN050=

USA.gov is the U.S. government's official web portal to all federal, state and local government web resources and services.